createdAt,value
2023-08-08T00:00:29.353Z,14.13
2023-08-08T00:02:56.067Z,14.13
2023-08-08T00:05:22.852Z,14.13
2023-08-08T00:07:49.499Z,14.19
2023-08-08T00:10:16.161Z,14.25
2023-08-08T00:12:42.854Z,14.25
2023-08-08T00:15:10.505Z,14.19
2023-08-08T00:17:37.215Z,14.25
2023-08-08T00:20:04.523Z,14.31
2023-08-08T00:22:31.387Z,14.25
2023-08-08T00:24:58.109Z,14.38
2023-08-08T00:27:24.743Z,14.38
2023-08-08T00:29:51.932Z,14.38
2023-08-08T00:32:18.588Z,14.38
2023-08-08T00:34:45.489Z,14.38
2023-08-08T00:37:12.133Z,14.31
2023-08-08T00:39:38.781Z,14.31
2023-08-08T00:42:05.575Z,14.31
2023-08-08T00:44:32.166Z,14.38
2023-08-08T00:46:59.204Z,14.38
2023-08-08T00:49:25.963Z,14.25
2023-08-08T00:51:52.769Z,14.38
2023-08-08T00:54:19.796Z,14.38
2023-08-08T00:56:46.480Z,14.38
2023-08-08T00:59:14.147Z,14.38
2023-08-08T01:01:40.908Z,14.38
2023-08-08T01:04:08.127Z,14.31
2023-08-08T01:06:37.437Z,14.31
2023-08-08T01:09:26.515Z,14.38
2023-08-08T01:11:56.264Z,14.38
2023-08-08T01:14:26.388Z,14.44
2023-08-08T01:16:58.948Z,14.50
2023-08-08T01:19:29.495Z,14.56
2023-08-08T01:22:02.924Z,14.56
2023-08-08T01:24:31.298Z,14.56
2023-08-08T01:26:58.328Z,14.50
2023-08-08T01:29:25.054Z,14.50
2023-08-08T01:31:51.753Z,14.56
2023-08-08T01:34:18.422Z,14.56
2023-08-08T01:36:59.316Z,14.56
2023-08-08T01:39:31.982Z,14.50
2023-08-08T01:42:02.283Z,14.56
2023-08-08T01:44:30.205Z,14.50
2023-08-08T01:46:57.131Z,14.44
2023-08-08T01:49:23.782Z,14.44
2023-08-08T01:51:51.667Z,14.44
2023-08-08T01:54:18.570Z,14.44
2023-08-08T01:56:45.273Z,14.50
2023-08-08T01:59:13.103Z,14.38
2023-08-08T02:01:41.793Z,14.44
2023-08-08T02:04:08.522Z,14.38
2023-08-08T02:06:35.151Z,14.44
2023-08-08T02:09:03.470Z,14.44
2023-08-08T02:11:30.079Z,14.38
2023-08-08T02:13:56.777Z,14.44
2023-08-08T02:16:23.441Z,14.44
2023-08-08T02:18:50.104Z,14.44
2023-08-08T02:21:17.149Z,14.44
2023-08-08T02:23:43.880Z,14.44
2023-08-08T02:26:11.620Z,14.44
2023-08-08T02:28:38.289Z,14.44
2023-08-08T02:31:05.178Z,14.44
2023-08-08T02:33:31.922Z,14.44
2023-08-08T02:35:58.535Z,14.38
2023-08-08T02:38:25.240Z,14.31
2023-08-08T02:40:51.927Z,14.31
2023-08-08T02:43:18.698Z,14.31
2023-08-08T02:45:45.408Z,14.25
2023-08-08T02:48:12.076Z,14.25
2023-08-08T02:50:38.771Z,14.25
2023-08-08T02:53:06.675Z,14.25
2023-08-08T02:55:33.307Z,14.25
2023-08-08T02:57:59.896Z,14.25
2023-08-08T03:00:26.535Z,14.25
2023-08-08T03:02:53.247Z,14.38
2023-08-08T03:05:19.922Z,14.25
2023-08-08T03:07:46.516Z,14.25
2023-08-08T03:10:13.894Z,14.19
2023-08-08T03:12:40.740Z,14.19
2023-08-08T03:15:08.090Z,14.25
2023-08-08T03:17:35.795Z,14.25
2023-08-08T03:20:03.404Z,14.19
2023-08-08T03:22:30.048Z,14.25
2023-08-08T03:24:56.704Z,14.13
2023-08-08T03:27:23.372Z,14.13
2023-08-08T03:29:50.064Z,14.13
2023-08-08T03:32:16.720Z,14.13
2023-08-08T03:34:43.388Z,14.19
2023-08-08T03:37:10.073Z,14.13
2023-08-08T03:39:36.759Z,14.06
2023-08-08T03:42:03.550Z,14.06
2023-08-08T03:44:30.255Z,14.06
2023-08-08T03:47:09.448Z,14.06
2023-08-08T03:49:40.689Z,14.00
2023-08-08T03:52:07.378Z,14.00
2023-08-08T03:54:34.005Z,13.94
2023-08-08T03:57:02.068Z,13.94
2023-08-08T03:59:28.748Z,13.88
2023-08-08T04:01:55.425Z,13.88
2023-08-08T04:04:22.059Z,13.88
2023-08-08T04:06:48.695Z,13.94
2023-08-08T04:09:15.304Z,13.88
2023-08-08T04:11:41.943Z,13.88
2023-08-08T04:14:08.616Z,13.88
2023-08-08T04:16:35.246Z,13.88
2023-08-08T04:19:04.424Z,13.88
2023-08-08T04:21:33.266Z,13.88
2023-08-08T04:24:01.256Z,13.88
2023-08-08T04:26:28.048Z,13.94
2023-08-08T04:28:54.773Z,13.81
2023-08-08T04:31:21.513Z,13.75
2023-08-08T04:33:48.201Z,13.75
2023-08-08T04:36:14.864Z,13.75
2023-08-08T04:38:41.467Z,13.69
2023-08-08T04:41:08.089Z,13.75
2023-08-08T04:43:34.840Z,13.69
2023-08-08T04:46:01.746Z,13.69
2023-08-08T04:48:28.423Z,13.75
2023-08-08T04:50:55.024Z,13.75
2023-08-08T04:53:21.624Z,13.75
2023-08-08T04:55:48.515Z,13.75
2023-08-08T04:58:15.179Z,13.81
2023-08-08T05:00:41.846Z,13.81
2023-08-08T05:03:08.681Z,13.81
2023-08-08T05:05:35.361Z,13.81
2023-08-08T05:08:01.981Z,13.81
2023-08-08T05:10:28.644Z,13.81
2023-08-08T05:12:55.310Z,13.81
2023-08-08T05:15:21.968Z,13.88
2023-08-08T05:17:48.692Z,13.88
2023-08-08T05:20:15.555Z,13.94
2023-08-08T05:22:42.179Z,13.94
2023-08-08T05:25:09.224Z,14.00
2023-08-08T05:27:35.967Z,14.00
2023-08-08T05:30:02.729Z,14.00
2023-08-08T05:32:29.458Z,14.06
2023-08-08T05:34:57.983Z,14.06
2023-08-08T05:37:25.549Z,14.06
2023-08-08T05:39:53.479Z,14.13
2023-08-08T05:42:20.328Z,14.13
2023-08-08T05:44:47.012Z,14.19
2023-08-08T05:47:13.687Z,14.19
2023-08-08T05:49:43.476Z,14.25
2023-08-08T05:52:11.259Z,14.31
2023-08-08T05:54:38.204Z,14.31
2023-08-08T05:57:05.259Z,14.38
2023-08-08T05:59:31.918Z,14.44
2023-08-08T06:02:00.413Z,14.50
2023-08-08T06:04:27.377Z,14.56
2023-08-08T06:06:54.001Z,14.56
2023-08-08T06:09:20.788Z,14.63
2023-08-08T06:11:47.482Z,14.69
2023-08-08T06:14:14.173Z,14.75
2023-08-08T06:16:41.091Z,14.88
2023-08-08T06:19:07.749Z,14.94
2023-08-08T06:21:34.383Z,15.06
2023-08-08T06:24:00.958Z,15.13
2023-08-08T06:26:27.663Z,15.25
2023-08-08T06:28:54.374Z,15.25
2023-08-08T06:31:21.123Z,15.38
2023-08-08T06:33:47.758Z,15.50
2023-08-08T06:36:14.377Z,15.63
2023-08-08T06:38:41.028Z,15.75
2023-08-08T06:41:07.644Z,15.81
2023-08-08T06:43:34.293Z,15.88
2023-08-08T06:46:01.861Z,16.06
2023-08-08T06:48:28.570Z,16.06
2023-08-08T06:50:55.775Z,16.19
2023-08-08T06:53:22.632Z,16.38
2023-08-08T06:55:49.250Z,16.50
2023-08-08T06:58:16.057Z,16.50
2023-08-08T07:00:42.764Z,16.81
2023-08-08T07:03:09.479Z,16.88
2023-08-08T07:05:36.753Z,16.88
2023-08-08T07:08:03.592Z,16.94
2023-08-08T07:10:30.692Z,16.94
2023-08-08T07:12:57.412Z,17.06
2023-08-08T07:15:25.059Z,17.19
2023-08-08T07:17:51.792Z,17.38
2023-08-08T07:20:19.017Z,17.44
2023-08-08T07:22:45.743Z,17.56
2023-08-08T07:25:12.843Z,17.88
2023-08-08T07:27:39.561Z,17.81
2023-08-08T07:30:07.924Z,18.13
2023-08-08T07:32:35.271Z,18.25
2023-08-08T07:35:03.821Z,18.19
2023-08-08T07:37:30.814Z,18.31
2023-08-08T07:39:57.557Z,17.94
2023-08-08T07:42:24.223Z,18.13
2023-08-08T07:44:51.446Z,18.38
2023-08-08T07:47:18.129Z,18.25
2023-08-08T07:49:44.867Z,17.88
2023-08-08T07:52:11.527Z,18.25
2023-08-08T07:54:38.256Z,18.63
2023-08-08T07:57:05.140Z,18.63
2023-08-08T07:59:31.784Z,19.06
2023-08-08T08:01:58.496Z,18.81
2023-08-08T08:04:25.211Z,19.31
2023-08-08T08:06:51.832Z,19.19
2023-08-08T08:09:18.517Z,19.19
2023-08-08T08:11:45.176Z,19.25
2023-08-08T08:14:11.894Z,18.88
2023-08-08T08:16:39.444Z,19.25
2023-08-08T08:19:06.134Z,19.25
2023-08-08T08:21:32.780Z,19.44
2023-08-08T08:23:59.388Z,19.69
2023-08-08T08:26:26.017Z,19.38
2023-08-08T08:28:52.666Z,19.69
2023-08-08T08:31:19.366Z,19.69
2023-08-08T08:33:46.517Z,19.63
2023-08-08T08:36:14.643Z,19.44
2023-08-08T08:38:41.348Z,19.56
2023-08-08T08:41:13.666Z,19.69
2023-08-08T08:43:41.168Z,19.94
2023-08-08T08:46:11.993Z,19.56
2023-08-08T08:48:38.666Z,19.31
2023-08-08T08:51:05.506Z,19.69
2023-08-08T08:53:32.329Z,19.88
2023-08-08T08:55:59.004Z,19.50
2023-08-08T08:58:26.056Z,19.31
2023-08-08T09:00:53.452Z,19.56
2023-08-08T09:03:20.859Z,19.63
2023-08-08T09:05:49.244Z,19.44
2023-08-08T09:08:16.347Z,19.50
2023-08-08T09:10:43.195Z,19.63
2023-08-08T09:13:10.002Z,19.44
2023-08-08T09:15:36.754Z,19.31
2023-08-08T09:18:03.618Z,19.06
2023-08-08T09:20:30.934Z,19.19
2023-08-08T09:22:58.304Z,19.31
2023-08-08T09:25:26.999Z,19.50
2023-08-08T09:27:54.569Z,19.75
2023-08-08T09:30:21.777Z,19.38
2023-08-08T09:32:48.770Z,19.69
2023-08-08T09:35:16.302Z,20.25
2023-08-08T09:37:43.248Z,20.06
2023-08-08T09:40:12.594Z,20.63
2023-08-08T09:42:41.975Z,20.63
2023-08-08T09:45:09.934Z,20.75
2023-08-08T09:47:38.480Z,20.69
2023-08-08T09:50:06.272Z,20.63
2023-08-08T09:52:35.691Z,20.38
2023-08-08T09:55:04.160Z,20.19
2023-08-08T09:57:31.274Z,20.06
2023-08-08T09:59:58.744Z,19.88
2023-08-08T10:02:25.954Z,19.56
2023-08-08T10:04:54.302Z,19.75
2023-08-08T10:07:21.133Z,20.19
2023-08-08T10:09:48.041Z,20.50
2023-08-08T10:12:14.984Z,20.06
2023-08-08T10:14:43.986Z,20.06
2023-08-08T10:17:15.736Z,20.69
2023-08-08T10:19:56.857Z,21.19
2023-08-08T10:22:26.031Z,20.94
2023-08-08T10:24:55.216Z,20.75
2023-08-08T10:27:36.615Z,20.63
2023-08-08T10:30:10.332Z,20.63
2023-08-08T10:32:45.110Z,20.75
2023-08-08T10:35:13.373Z,20.56
2023-08-08T10:37:41.165Z,20.31
2023-08-08T10:40:09.257Z,20.56
2023-08-08T10:42:44.050Z,20.38
2023-08-08T10:45:16.767Z,20.50
2023-08-08T10:47:44.505Z,20.44
2023-08-08T10:50:16.591Z,20.06
2023-08-08T10:52:53.161Z,20.19
2023-08-08T10:55:21.383Z,20.31
2023-08-08T10:58:06.735Z,20.31
2023-08-08T11:00:35.598Z,20.56
2023-08-08T11:03:05.932Z,20.38
2023-08-08T11:05:37.438Z,20.44
2023-08-08T11:08:06.346Z,20.31
2023-08-08T11:10:53.533Z,20.38
2023-08-08T11:13:20.818Z,20.50
2023-08-08T11:15:47.950Z,20.38
2023-08-08T11:18:16.511Z,20.25
2023-08-08T11:20:44.584Z,20.56
2023-08-08T11:23:13.431Z,20.44
2023-08-08T11:25:45.435Z,20.88
2023-08-08T11:28:13.384Z,20.69
2023-08-08T11:30:45.900Z,20.81
2023-08-08T11:33:18.590Z,20.88
2023-08-08T11:35:50.379Z,21.06
2023-08-08T11:38:18.814Z,20.63
2023-08-08T11:40:46.168Z,20.31
2023-08-08T11:43:14.793Z,20.63
2023-08-08T11:45:41.722Z,20.94
2023-08-08T11:48:09.518Z,21.13
2023-08-08T11:50:38.755Z,21.13
2023-08-08T11:53:07.097Z,20.69
2023-08-08T11:55:35.004Z,21.69
2023-08-08T11:58:01.963Z,21.63
2023-08-08T12:00:33.452Z,21.63
2023-08-08T12:03:02.925Z,21.81
2023-08-08T12:05:31.033Z,21.81
2023-08-08T12:08:00.225Z,21.94
2023-08-08T12:10:27.258Z,21.63
2023-08-08T12:12:56.438Z,21.25
2023-08-08T12:15:23.242Z,21.38
2023-08-08T12:17:50.552Z,21.44
2023-08-08T12:20:17.242Z,21.50
2023-08-08T12:22:43.906Z,21.75
2023-08-08T12:25:10.658Z,22.25
2023-08-08T12:27:37.532Z,22.63
2023-08-08T12:30:04.634Z,22.50
2023-08-08T12:32:32.829Z,21.88
2023-08-08T12:34:59.850Z,21.81
2023-08-08T12:37:26.635Z,21.44
2023-08-08T12:39:53.333Z,21.25
2023-08-08T12:42:20.069Z,21.06
2023-08-08T12:44:48.039Z,21.19
2023-08-08T12:47:15.760Z,21.69
2023-08-08T12:49:43.034Z,22.00
2023-08-08T12:52:10.179Z,22.38
2023-08-08T12:54:37.604Z,22.63
2023-08-08T12:57:05.094Z,22.00
2023-08-08T12:59:32.050Z,22.25
2023-08-08T13:01:59.448Z,22.25
2023-08-08T13:04:26.383Z,22.19
2023-08-08T13:06:53.245Z,22.00
2023-08-08T13:09:19.971Z,22.06
2023-08-08T13:11:46.872Z,22.19
2023-08-08T13:14:13.566Z,22.06
2023-08-08T13:16:40.278Z,22.81
2023-08-08T13:19:07.099Z,23.25
2023-08-08T13:21:33.770Z,23.25
2023-08-08T13:24:00.420Z,23.44
2023-08-08T13:26:27.052Z,22.94
2023-08-08T13:28:53.689Z,22.50
2023-08-08T13:31:20.310Z,22.50
2023-08-08T13:33:46.934Z,22.50
2023-08-08T13:36:13.617Z,22.06
2023-08-08T13:38:40.276Z,21.31
2023-08-08T13:41:06.909Z,21.63
2023-08-08T13:43:33.582Z,21.25
2023-08-08T13:46:01.408Z,21.44
2023-08-08T13:48:28.201Z,21.13
2023-08-08T13:50:55.210Z,20.81
2023-08-08T13:53:21.903Z,21.06
2023-08-08T13:55:48.590Z,21.19
2023-08-08T13:58:15.245Z,21.19
2023-08-08T14:00:42.124Z,21.06
2023-08-08T14:03:08.924Z,20.69
2023-08-08T14:05:35.831Z,21.00
2023-08-08T14:08:02.511Z,20.63
2023-08-08T14:10:29.110Z,20.75
2023-08-08T14:12:55.848Z,20.88
2023-08-08T14:15:22.576Z,20.75
2023-08-08T14:17:49.276Z,20.94
2023-08-08T14:20:16.352Z,21.19
2023-08-08T14:22:48.667Z,20.75
2023-08-08T14:25:16.261Z,20.75
2023-08-08T14:27:42.926Z,20.50
2023-08-08T14:30:09.975Z,21.13
2023-08-08T14:32:36.874Z,20.94
2023-08-08T14:35:05.727Z,21.13
2023-08-08T14:37:33.006Z,21.50
2023-08-08T14:39:59.652Z,20.88
2023-08-08T14:42:26.329Z,21.31
2023-08-08T14:44:53.141Z,21.31
2023-08-08T14:47:19.795Z,21.56
2023-08-08T14:49:46.409Z,21.50
2023-08-08T14:52:13.568Z,21.56
2023-08-08T14:54:40.602Z,21.63
2023-08-08T14:57:07.270Z,21.38
2023-08-08T14:59:33.867Z,21.50
2023-08-08T15:02:00.591Z,21.13
2023-08-08T15:04:27.240Z,20.75
2023-08-08T15:06:53.914Z,21.00
2023-08-08T15:09:20.581Z,20.94
2023-08-08T15:11:47.226Z,21.19
2023-08-08T15:14:13.864Z,21.50
2023-08-08T15:16:40.491Z,21.44
2023-08-08T15:19:07.281Z,21.56
2023-08-08T15:21:33.966Z,21.38
2023-08-08T15:24:00.736Z,21.44
2023-08-08T15:26:27.448Z,21.50
2023-08-08T15:28:54.128Z,21.75
2023-08-08T15:31:20.757Z,20.94
2023-08-08T15:33:47.420Z,21.31
2023-08-08T15:36:14.177Z,21.56
2023-08-08T15:38:42.070Z,21.44
2023-08-08T15:41:08.695Z,21.31
2023-08-08T15:43:35.953Z,20.63
2023-08-08T15:46:03.089Z,20.81
2023-08-08T15:48:30.052Z,20.75
2023-08-08T15:50:57.149Z,20.63
2023-08-08T15:53:24.197Z,20.44
2023-08-08T15:55:51.207Z,20.44
2023-08-08T15:58:17.896Z,20.38
2023-08-08T16:00:44.588Z,20.75
2023-08-08T16:03:11.367Z,20.69
2023-08-08T16:05:40.337Z,20.31
2023-08-08T16:08:08.162Z,20.31
2023-08-08T16:10:35.097Z,19.94
2023-08-08T16:13:01.870Z,20.06
2023-08-08T16:15:28.547Z,20.13
2023-08-08T16:17:55.248Z,20.06
2023-08-08T16:20:22.002Z,19.56
2023-08-08T16:22:49.928Z,19.56
2023-08-08T16:25:16.915Z,19.69
2023-08-08T16:27:43.547Z,19.50
2023-08-08T16:30:10.607Z,19.56
2023-08-08T16:32:37.257Z,19.31
2023-08-08T16:35:04.322Z,19.19
2023-08-08T16:37:30.936Z,19.06
2023-08-08T16:39:58.947Z,19.25
2023-08-08T16:42:25.607Z,19.25
2023-08-08T16:44:52.583Z,19.25
2023-08-08T16:47:19.243Z,19.13
2023-08-08T16:49:47.200Z,18.88
2023-08-08T16:52:13.865Z,18.75
2023-08-08T16:54:41.294Z,18.88
2023-08-08T16:57:07.961Z,18.75
2023-08-08T16:59:35.021Z,18.81
2023-08-08T17:02:01.838Z,18.75
2023-08-08T17:04:28.741Z,18.63
2023-08-08T17:06:55.397Z,18.44
2023-08-08T17:09:23.907Z,18.31
2023-08-08T17:11:51.152Z,18.13
2023-08-08T17:14:17.772Z,18.19
2023-08-08T17:16:46.049Z,18.00
2023-08-08T17:19:13.129Z,17.94
2023-08-08T17:21:39.820Z,17.75
2023-08-08T17:24:06.584Z,17.69
2023-08-08T17:26:33.375Z,17.63
2023-08-08T17:28:59.976Z,17.56
2023-08-08T17:31:26.640Z,17.50
2023-08-08T17:33:55.456Z,17.44
2023-08-08T17:36:22.086Z,17.56
2023-08-08T17:38:48.722Z,17.38
2023-08-08T17:41:15.318Z,17.44
2023-08-08T17:43:42.414Z,17.25
2023-08-08T17:46:09.124Z,17.06
2023-08-08T17:48:35.851Z,17.13
2023-08-08T17:51:02.910Z,17.25
2023-08-08T17:53:30.381Z,17.13
2023-08-08T17:55:57.063Z,17.31
2023-08-08T17:58:23.679Z,17.00
2023-08-08T18:00:50.303Z,17.31
2023-08-08T18:03:16.952Z,17.19
2023-08-08T18:05:43.726Z,17.19
2023-08-08T18:08:12.148Z,16.94
2023-08-08T18:10:38.789Z,17.00
2023-08-08T18:13:05.427Z,16.88
2023-08-08T18:15:32.103Z,16.81
2023-08-08T18:17:58.791Z,16.75
2023-08-08T18:20:25.500Z,16.94
2023-08-08T18:22:53.276Z,16.75
2023-08-08T18:25:20.566Z,16.38
2023-08-08T18:27:47.283Z,16.50
2023-08-08T18:30:16.343Z,16.44
2023-08-08T18:32:44.201Z,16.56
2023-08-08T18:35:11.310Z,16.38
2023-08-08T18:37:39.347Z,16.38
2023-08-08T18:40:07.069Z,16.25
2023-08-08T18:42:34.540Z,16.06
2023-08-08T18:45:01.179Z,16.06
2023-08-08T18:47:28.617Z,16.06
2023-08-08T18:49:55.423Z,16.06
2023-08-08T18:52:22.103Z,16.06
2023-08-08T18:54:49.248Z,16.13
2023-08-08T18:57:15.942Z,16.06
2023-08-08T18:59:42.597Z,15.94
2023-08-08T19:02:09.240Z,15.88
2023-08-08T19:04:36.007Z,15.94
2023-08-08T19:07:03.331Z,15.94
2023-08-08T19:09:30.955Z,16.00
2023-08-08T19:11:57.625Z,15.75
2023-08-08T19:14:24.342Z,15.75
2023-08-08T19:16:51.008Z,15.44
2023-08-08T19:19:17.711Z,15.31
2023-08-08T19:21:44.367Z,15.63
2023-08-08T19:24:11.555Z,15.50
2023-08-08T19:26:38.297Z,15.31
2023-08-08T19:29:05.229Z,15.44
2023-08-08T19:31:31.868Z,15.38
2023-08-08T19:34:06.342Z,15.44
2023-08-08T19:36:34.428Z,15.25
2023-08-08T19:39:01.076Z,15.13
2023-08-08T19:41:27.724Z,14.94
2023-08-08T19:43:54.419Z,14.81
2023-08-08T19:46:21.908Z,15.06
2023-08-08T19:48:49.668Z,14.94
2023-08-08T19:51:16.982Z,14.81
2023-08-08T19:53:44.069Z,14.75
2023-08-08T19:56:10.746Z,14.63
2023-08-08T19:58:37.373Z,14.69
2023-08-08T20:01:04.162Z,14.50
2023-08-08T20:03:31.041Z,14.63
2023-08-08T20:05:57.737Z,14.50
2023-08-08T20:08:24.505Z,14.56
2023-08-08T20:10:51.203Z,14.50
2023-08-08T20:13:17.869Z,14.50
2023-08-08T20:15:44.580Z,14.38
2023-08-08T20:18:11.218Z,14.44
2023-08-08T20:20:37.916Z,14.44
2023-08-08T20:23:04.584Z,14.44
2023-08-08T20:25:31.267Z,14.44
2023-08-08T20:27:58.019Z,14.44
2023-08-08T20:30:24.820Z,14.44
2023-08-08T20:32:51.627Z,14.38
2023-08-08T20:35:18.393Z,14.19
2023-08-08T20:37:45.515Z,14.31
2023-08-08T20:40:12.146Z,14.38
2023-08-08T20:42:38.821Z,14.25
2023-08-08T20:45:06.848Z,14.31
2023-08-08T20:47:33.606Z,14.19
2023-08-08T20:50:00.243Z,14.19
2023-08-08T20:52:26.891Z,14.25
2023-08-08T20:54:53.596Z,14.31
2023-08-08T20:57:20.274Z,14.25
2023-08-08T20:59:46.936Z,14.19
2023-08-08T21:02:13.628Z,14.19
2023-08-08T21:04:40.306Z,14.13
2023-08-08T21:07:07.476Z,14.06
2023-08-08T21:09:34.177Z,14.06
2023-08-08T21:12:00.847Z,14.06
2023-08-08T21:14:27.526Z,14.06
2023-08-08T21:16:54.319Z,13.94
2023-08-08T21:19:20.981Z,14.00
2023-08-08T21:21:47.654Z,14.00
2023-08-08T21:24:14.311Z,14.00
2023-08-08T21:26:40.937Z,14.00
2023-08-08T21:29:08.143Z,14.13
2023-08-08T21:31:34.854Z,14.00
2023-08-08T21:34:01.538Z,14.06
2023-08-08T21:36:28.270Z,14.13
2023-08-08T21:38:54.964Z,14.13
2023-08-08T21:41:21.742Z,13.94
2023-08-08T21:43:48.377Z,13.94
2023-08-08T21:46:15.085Z,14.00
2023-08-08T21:48:41.774Z,14.13
2023-08-08T21:51:08.512Z,13.94
2023-08-08T21:53:36.030Z,14.06
2023-08-08T21:56:03.219Z,14.06
2023-08-08T21:58:29.938Z,13.94
2023-08-08T22:00:56.588Z,14.00
2023-08-08T22:03:23.692Z,14.00
2023-08-08T22:05:50.321Z,14.00
2023-08-08T22:08:17.800Z,14.06
2023-08-08T22:10:45.018Z,14.00
2023-08-08T22:13:12.148Z,14.13
2023-08-08T22:15:39.091Z,14.13
2023-08-08T22:18:14.712Z,14.00
2023-08-08T22:20:42.233Z,14.06
2023-08-08T22:23:18.100Z,14.19
2023-08-08T22:25:48.108Z,14.25
2023-08-08T22:28:14.968Z,14.25
2023-08-08T22:30:41.983Z,14.31
2023-08-08T22:33:08.677Z,14.13
2023-08-08T22:35:35.362Z,14.25
2023-08-08T22:38:02.005Z,14.38
2023-08-08T22:40:28.844Z,14.38
2023-08-08T22:42:55.432Z,14.44
2023-08-08T22:45:22.407Z,14.44
2023-08-08T22:47:49.081Z,14.38
2023-08-08T22:50:15.795Z,14.31
2023-08-08T22:52:42.436Z,14.31
2023-08-08T22:55:09.151Z,14.38
2023-08-08T22:57:35.836Z,14.38
2023-08-08T23:00:02.969Z,14.44
2023-08-08T23:02:29.643Z,14.50
2023-08-08T23:04:57.294Z,14.50
2023-08-08T23:07:23.987Z,14.44
2023-08-08T23:09:51.060Z,14.50
2023-08-08T23:12:17.832Z,14.56
2023-08-08T23:14:44.517Z,14.38
2023-08-08T23:17:11.193Z,14.38
2023-08-08T23:19:38.363Z,14.38
2023-08-08T23:22:05.158Z,14.13
2023-08-08T23:24:32.033Z,14.19
2023-08-08T23:26:59.528Z,14.25
2023-08-08T23:29:26.459Z,14.25
2023-08-08T23:31:53.141Z,14.25
2023-08-08T23:34:19.805Z,14.19
2023-08-08T23:36:46.436Z,14.25
2023-08-08T23:39:13.611Z,14.19
2023-08-08T23:41:40.237Z,14.19
2023-08-08T23:44:06.905Z,14.19
2023-08-08T23:46:33.532Z,14.25
2023-08-08T23:49:00.394Z,14.19
2023-08-08T23:51:27.125Z,14.13
2023-08-08T23:53:53.835Z,14.06
2023-08-08T23:56:20.472Z,14.00
2023-08-08T23:58:47.618Z,14.00
